Time;durP1;ratioP1;P1;durP2;ratioP2;P2;SDS_P1;SDS_P2;PMS_P1;PMS_P2;Temp;Humidity;BMP_temperature;BMP_pressure;BME280_temperature;BME280_humidity;BME280_pressure;Samples;Min_cycle;Max_cycle;Signal;HPM_P1;HPM_P2
2022/08/31 00:06:18;;;;;;;2.10;1.58;;;;;;;;;;5027998;28;20657;-67
2022/08/31 00:08:44;;;;;;;7.78;1.38;;;;;;;;;;5021840;28;20347;-67
2022/08/31 00:11:12;;;;;;;3.25;1.00;;;;;;;;;;5021311;28;20178;-67
2022/08/31 00:13:39;;;;;;;2.88;1.15;;;;;;;;;;5024461;28;20190;-67
2022/08/31 00:16:05;;;;;;;3.22;1.17;;;;;;;;;;5022850;28;20191;-67
2022/08/31 00:18:31;;;;;;;3.35;1.15;;;;;;;;;;5022886;28;20193;-67
2022/08/31 00:20:56;;;;;;;4.28;1.30;;;;;;;;;;5026031;28;20332;-67
2022/08/31 00:23:22;;;;;;;2.67;0.80;;;;;;;;;;5026583;28;20202;-67
2022/08/31 00:25:48;;;;;;;1.77;0.88;;;;;;;;;;5021813;28;20222;-67
2022/08/31 00:28:15;;;;;;;1.65;0.90;;;;;;;;;;5015598;28;20211;-67
2022/08/31 00:30:41;;;;;;;2.35;0.85;;;;;;;;;;5018667;28;20189;-67
2022/08/31 00:33:07;;;;;;;3.22;1.00;;;;;;;;;;5021333;28;20205;-66
2022/08/31 00:35:35;;;;;;;1.65;0.90;;;;;;;;;;5021686;28;21028;-67
2022/08/31 00:38:01;;;;;;;1.08;0.90;;;;;;;;;;5025143;28;20174;-67
2022/08/31 00:40:27;;;;;;;1.25;0.80;;;;;;;;;;5026305;28;20186;-68
2022/08/31 00:42:53;;;;;;;4.28;1.33;;;;;;;;;;5024111;28;20209;-67
2022/08/31 00:45:19;;;;;;;5.82;1.30;;;;;;;;;;5025075;28;20470;-67
2022/08/31 00:47:44;;;;;;;1.77;0.70;;;;;;;;;;5019071;28;20252;-67
2022/08/31 00:50:13;;;;;;;1.25;1.02;;;;;;;;;;5024223;28;20198;-67
2022/08/31 00:52:44;;;;;;;1.40;0.88;;;;;;;;;;5021683;28;20686;-67
2022/08/31 00:55:16;;;;;;;1.77;0.90;;;;;;;;;;5017184;28;20221;-67
2022/08/31 00:57:46;;;;;;;4.93;0.95;;;;;;;;;;5017143;28;20274;-66
2022/08/31 01:00:16;;;;;;;2.60;0.73;;;;;;;;;;5026113;28;20190;-67
2022/08/31 01:02:43;;;;;;;1.95;0.82;;;;;;;;;;5014068;28;20603;-66
2022/08/31 01:05:09;;;;;;;1.88;0.90;;;;;;;;;;5026656;28;20233;-67
2022/08/31 01:07:35;;;;;;;1.42;1.00;;;;;;;;;;5016220;28;20626;-67
2022/08/31 01:10:01;;;;;;;1.75;0.60;;;;;;;;;;5024120;28;20270;-68
2022/08/31 01:12:27;;;;;;;2.22;0.75;;;;;;;;;;5018299;28;20277;-67
2022/08/31 01:14:54;;;;;;;1.52;0.80;;;;;;;;;;5024960;28;20214;-67
2022/08/31 01:17:20;;;;;;;1.67;1.02;;;;;;;;;;5027390;28;20265;-67
2022/08/31 01:20:15;;;;;;;2.78;0.88;;;;;;;;;;5021416;28;20213;-67
2022/08/31 01:23:11;;;;;;;1.20;0.77;;;;;;;;;;5024701;28;20200;-67
2022/08/31 01:25:39;;;;;;;2.05;0.80;;;;;;;;;;5017809;28;20222;-67
2022/08/31 01:28:06;;;;;;;2.28;0.80;;;;;;;;;;5024406;28;20266;-67
2022/08/31 01:30:32;;;;;;;2.33;0.80;;;;;;;;;;5020219;28;20599;-67
2022/08/31 01:32:58;;;;;;;1.88;0.90;;;;;;;;;;5024543;28;20214;-67
2022/08/31 01:35:24;;;;;;;1.00;0.70;;;;;;;;;;5017279;28;20613;-67
2022/08/31 01:37:50;;;;;;;1.30;0.65;;;;;;;;;;5024037;28;20182;-68
2022/08/31 01:40:16;;;;;;;1.30;0.90;;;;;;;;;;5022567;28;20194;-67
2022/08/31 01:42:41;;;;;;;1.00;0.77;;;;;;;;;;5022761;28;20186;-67
2022/08/31 01:45:07;;;;;;;2.55;0.70;;;;;;;;;;5017996;28;20676;-67
2022/08/31 01:47:33;;;;;;;2.35;0.80;;;;;;;;;;5018221;28;20213;-67
2022/08/31 01:49:58;;;;;;;0.93;0.70;;;;;;;;;;5021176;28;20182;-67
2022/08/31 01:52:25;;;;;;;1.45;0.82;;;;;;;;;;5020293;28;20182;-67
2022/08/31 01:54:51;;;;;;;2.30;0.73;;;;;;;;;;5020931;28;20182;-67
2022/08/31 01:57:16;;;;;;;2.35;0.80;;;;;;;;;;5015720;28;20197;-66
2022/08/31 01:59:41;;;;;;;1.90;0.90;;;;;;;;;;5016601;28;20182;-67
2022/08/31 02:02:07;;;;;;;2.90;0.90;;;;;;;;;;5012929;28;20274;-67
2022/08/31 02:04:32;;;;;;;1.58;0.80;;;;;;;;;;5013539;28;20201;-67
2022/08/31 02:06:59;;;;;;;3.03;0.77;;;;;;;;;;5022373;28;20478;-67
2022/08/31 02:09:25;;;;;;;1.08;0.80;;;;;;;;;;5019649;28;20178;-68
2022/08/31 02:11:50;;;;;;;1.67;0.75;;;;;;;;;;5020015;28;20649;-68
2022/08/31 02:14:17;;;;;;;0.95;0.55;;;;;;;;;;5023087;28;20572;-67
2022/08/31 02:16:42;;;;;;;4.32;1.05;;;;;;;;;;5022814;28;20358;-66
2022/08/31 02:19:08;;;;;;;0.88;0.60;;;;;;;;;;5018318;28;20175;-66
2022/08/31 02:21:34;;;;;;;2.13;1.00;;;;;;;;;;5019109;28;20204;-66
2022/08/31 02:24:00;;;;;;;0.70;0.60;;;;;;;;;;5030231;28;20193;-67
2022/08/31 02:26:25;;;;;;;2.05;0.80;;;;;;;;;;5023422;28;20222;-67
2022/08/31 02:28:51;;;;;;;3.30;0.80;;;;;;;;;;5018737;28;20281;-67
2022/08/31 02:31:17;;;;;;;1.38;0.60;;;;;;;;;;5018843;28;20202;-67
2022/08/31 02:33:42;;;;;;;1.40;0.90;;;;;;;;;;5017983;28;20261;-67
2022/08/31 02:36:08;;;;;;;1.27;0.60;;;;;;;;;;5028137;28;20204;-67
2022/08/31 02:38:35;;;;;;;1.30;0.52;;;;;;;;;;5021344;28;20187;-66
2022/08/31 02:41:02;;;;;;;2.25;0.50;;;;;;;;;;5020946;28;20182;-67
2022/08/31 02:43:27;;;;;;;1.80;0.90;;;;;;;;;;5014190;28;20210;-66
2022/08/31 02:45:52;;;;;;;1.70;0.60;;;;;;;;;;5014084;28;20262;-67
2022/08/31 02:48:18;;;;;;;4.60;0.65;;;;;;;;;;5024503;28;20611;-67
2022/08/31 02:50:46;;;;;;;2.13;0.80;;;;;;;;;;5024379;28;20221;-66
2022/08/31 02:53:14;;;;;;;1.42;0.52;;;;;;;;;;5024067;28;20258;-67
2022/08/31 02:55:41;;;;;;;1.15;0.52;;;;;;;;;;5020708;28;20190;-66
2022/08/31 02:58:08;;;;;;;1.83;0.40;;;;;;;;;;5017251;28;20185;-66
2022/08/31 03:00:33;;;;;;;1.67;0.47;;;;;;;;;;5022308;28;20183;-67
2022/08/31 03:02:59;;;;;;;0.43;0.43;;;;;;;;;;5019979;28;20197;-67
2022/08/31 03:05:25;;;;;;;0.63;0.60;;;;;;;;;;5022073;28;20233;-66
2022/08/31 03:07:51;;;;;;;2.72;0.60;;;;;;;;;;5026787;28;20221;-67
2022/08/31 03:10:19;;;;;;;1.63;0.90;;;;;;;;;;5026287;28;20210;-67
2022/08/31 03:12:46;;;;;;;0.77;0.55;;;;;;;;;;5019762;28;20587;-66
2022/08/31 03:15:11;;;;;;;1.45;0.43;;;;;;;;;;5022128;28;20210;-66
2022/08/31 03:17:37;;;;;;;1.00;0.65;;;;;;;;;;5025835;28;20642;-66
2022/08/31 03:20:04;;;;;;;1.15;0.80;;;;;;;;;;5023275;28;20193;-67
2022/08/31 03:22:30;;;;;;;2.17;0.70;;;;;;;;;;5022980;28;20182;-66
2022/08/31 03:24:56;;;;;;;1.88;0.32;;;;;;;;;;5017820;28;20225;-66
2022/08/31 03:27:23;;;;;;;0.43;0.43;;;;;;;;;;5011705;28;20289;-66
2022/08/31 03:29:49;;;;;;;2.22;0.40;;;;;;;;;;5018988;28;20190;-66
2022/08/31 03:32:14;;;;;;;1.00;0.35;;;;;;;;;;5013808;28;20206;-66
2022/08/31 03:34:40;;;;;;;1.02;0.40;;;;;;;;;;5014105;28;20191;-66
2022/08/31 03:37:05;;;;;;;0.60;0.50;;;;;;;;;;5008406;28;20259;-66
2022/08/31 03:39:30;;;;;;;1.55;0.47;;;;;;;;;;5010710;28;20240;-66
2022/08/31 03:41:55;;;;;;;0.80;0.40;;;;;;;;;;5009544;28;20281;-66
2022/08/31 03:44:22;;;;;;;1.50;0.50;;;;;;;;;;5023703;28;20651;-66
2022/08/31 03:46:48;;;;;;;1.20;0.30;;;;;;;;;;5018964;28;20190;-66
2022/08/31 03:49:14;;;;;;;0.60;0.40;;;;;;;;;;5018596;28;20187;-66
2022/08/31 03:51:40;;;;;;;1.15;0.30;;;;;;;;;;5019619;28;20489;-66
2022/08/31 03:54:05;;;;;;;0.80;0.40;;;;;;;;;;5014461;28;20187;-66
2022/08/31 03:56:31;;;;;;;0.52;0.32;;;;;;;;;;5021831;28;20595;-67
2022/08/31 03:58:56;;;;;;;0.95;0.45;;;;;;;;;;5017368;28;20214;-66
2022/08/31 04:01:21;;;;;;;0.65;0.40;;;;;;;;;;5017172;28;20630;-66
2022/08/31 04:03:47;;;;;;;0.60;0.30;;;;;;;;;;5019811;28;20584;-66
2022/08/31 04:06:12;;;;;;;4.40;0.50;;;;;;;;;;5015912;28;20650;-66
2022/08/31 04:08:38;;;;;;;0.63;0.30;;;;;;;;;;5018568;28;20203;-66
2022/08/31 04:11:11;;;;;;;0.90;0.50;;;;;;;;;;5023415;28;20190;-67
2022/08/31 04:13:37;;;;;;;1.08;0.50;;;;;;;;;;5029898;28;20182;-66
2022/08/31 04:16:06;;;;;;;2.20;0.55;;;;;;;;;;5027301;28;20548;-66
2022/08/31 04:18:32;;;;;;;0.82;0.40;;;;;;;;;;5028180;28;20724;-66
2022/08/31 04:20:57;;;;;;;2.13;0.60;;;;;;;;;;5027856;28;20343;-66
2022/08/31 04:23:24;;;;;;;0.63;0.40;;;;;;;;;;5020705;28;20190;-66
2022/08/31 04:25:49;;;;;;;3.50;0.65;;;;;;;;;;5023135;28;20697;-67
2022/08/31 04:28:15;;;;;;;1.67;0.60;;;;;;;;;;5030644;28;20233;-66
2022/08/31 04:30:41;;;;;;;0.75;0.35;;;;;;;;;;5023578;28;20174;-66
2022/08/31 04:33:07;;;;;;;0.80;0.70;;;;;;;;;;5023943;28;20202;-67
2022/08/31 04:35:32;;;;;;;2.45;0.60;;;;;;;;;;5024837;28;20232;-67
2022/08/31 04:37:58;;;;;;;0.45;0.40;;;;;;;;;;5026391;28;20224;-67
2022/08/31 04:40:23;;;;;;;2.40;0.50;;;;;;;;;;5026792;28;20174;-66
2022/08/31 04:42:48;;;;;;;2.22;0.50;;;;;;;;;;5023289;28;20179;-66
2022/08/31 04:45:15;;;;;;;0.85;0.40;;;;;;;;;;5030371;28;20217;-66
2022/08/31 04:47:41;;;;;;;2.13;0.57;;;;;;;;;;5019586;28;20201;-66
2022/08/31 04:50:11;;;;;;;0.75;0.55;;;;;;;;;;5025514;28;20579;-66
2022/08/31 04:52:37;;;;;;;0.77;0.55;;;;;;;;;;5018327;28;20190;-66
2022/08/31 04:55:03;;;;;;;1.98;0.50;;;;;;;;;;5023709;28;20217;-66
2022/08/31 04:57:30;;;;;;;2.10;0.95;;;;;;;;;;5030762;28;20174;-67
2022/08/31 04:59:55;;;;;;;1.55;0.40;;;;;;;;;;5021000;28;20193;-67
2022/08/31 05:02:21;;;;;;;0.70;0.45;;;;;;;;;;5030070;28;20190;-66
2022/08/31 05:04:46;;;;;;;0.70;0.40;;;;;;;;;;5030560;28;20178;-66
2022/08/31 05:07:11;;;;;;;3.00;0.60;;;;;;;;;;5028655;28;20233;-67
2022/08/31 05:09:37;;;;;;;3.90;0.73;;;;;;;;;;5024985;28;20206;-66
2022/08/31 05:12:02;;;;;;;1.95;0.57;;;;;;;;;;5028701;28;20700;-66
2022/08/31 05:14:28;;;;;;;0.45;0.45;;;;;;;;;;5025029;28;20193;-66
2022/08/31 05:16:53;;;;;;;1.88;0.50;;;;;;;;;;5025386;28;20217;-66
2022/08/31 05:19:19;;;;;;;2.08;0.60;;;;;;;;;;5020023;28;20707;-67
2022/08/31 05:21:46;;;;;;;3.50;0.52;;;;;;;;;;5020687;28;20182;-66
2022/08/31 05:24:17;;;;;;;2.08;0.60;;;;;;;;;;5019615;28;20273;-66
2022/08/31 05:26:46;;;;;;;2.35;0.80;;;;;;;;;;5020095;28;20711;-66
2022/08/31 05:29:14;;;;;;;0.95;0.50;;;;;;;;;;5025061;28;20178;-66
2022/08/31 05:31:40;;;;;;;3.10;0.70;;;;;;;;;;5015580;28;21715;-66
2022/08/31 05:34:06;;;;;;;2.20;0.52;;;;;;;;;;5018059;28;20191;-67
2022/08/31 05:36:33;;;;;;;1.83;0.68;;;;;;;;;;5018154;28;20260;-66
2022/08/31 05:38:59;;;;;;;2.85;0.70;;;;;;;;;;5019467;28;20517;-69
2022/08/31 05:41:25;;;;;;;3.88;0.90;;;;;;;;;;5018826;28;20203;-66
2022/08/31 05:43:51;;;;;;;3.45;0.75;;;;;;;;;;5021851;28;20196;-66
2022/08/31 05:46:16;;;;;;;2.92;0.68;;;;;;;;;;5023469;28;20658;-66
2022/08/31 05:48:42;;;;;;;3.22;0.70;;;;;;;;;;5021277;28;20519;-66
2022/08/31 05:51:11;;;;;;;2.55;0.80;;;;;;;;;;5024630;28;20189;-67
2022/08/31 05:53:37;;;;;;;1.30;0.70;;;;;;;;;;5019352;28;20740;-66
2022/08/31 05:56:05;;;;;;;1.73;1.05;;;;;;;;;;5017535;28;20331;-69
2022/08/31 05:58:32;;;;;;;2.42;0.77;;;;;;;;;;5021190;28;20182;-67
2022/08/31 06:00:58;;;;;;;2.63;0.80;;;;;;;;;;5020512;28;20209;-66
2022/08/31 06:03:24;;;;;;;2.00;0.90;;;;;;;;;;5022286;28;20190;-67
2022/08/31 06:05:51;;;;;;;4.70;0.82;;;;;;;;;;5021476;28;20513;-67
2022/08/31 06:08:17;;;;;;;2.40;0.77;;;;;;;;;;5021798;28;20202;-67
2022/08/31 06:10:43;;;;;;;1.48;0.60;;;;;;;;;;5022082;28;20279;-66
2022/08/31 06:13:11;;;;;;;2.95;0.90;;;;;;;;;;5024784;28;20230;-66
2022/08/31 06:15:36;;;;;;;1.05;0.80;;;;;;;;;;5028240;28;20190;-66
2022/08/31 06:18:03;;;;;;;1.30;0.70;;;;;;;;;;5026006;28;20175;-66
2022/08/31 06:20:29;;;;;;;2.85;0.90;;;;;;;;;;5024749;28;20182;-67
2022/08/31 06:22:55;;;;;;;4.88;1.02;;;;;;;;;;5024693;28;20205;-66
2022/08/31 06:25:22;;;;;;;1.83;1.00;;;;;;;;;;5025823;28;20254;-66
2022/08/31 06:27:49;;;;;;;3.83;0.77;;;;;;;;;;5026668;28;20198;-66
2022/08/31 06:30:20;;;;;;;3.05;0.95;;;;;;;;;;5025860;28;20174;-67
2022/08/31 06:32:46;;;;;;;3.78;0.98;;;;;;;;;;5025523;28;20224;-66
2022/08/31 06:35:12;;;;;;;1.35;1.00;;;;;;;;;;5027196;28;20178;-67
2022/08/31 06:37:37;;;;;;;1.83;0.88;;;;;;;;;;5027997;28;20593;-67
2022/08/31 06:40:03;;;;;;;1.48;0.95;;;;;;;;;;5022874;28;20192;-67
2022/08/31 06:42:28;;;;;;;4.43;1.27;;;;;;;;;;5026692;28;20186;-66
2022/08/31 06:44:54;;;;;;;3.13;0.93;;;;;;;;;;5023396;28;20178;-66
2022/08/31 06:47:19;;;;;;;1.00;0.90;;;;;;;;;;5025308;28;20210;-66
2022/08/31 06:49:44;;;;;;;1.55;1.10;;;;;;;;;;5025954;28;20198;-66
2022/08/31 06:52:10;;;;;;;3.20;1.10;;;;;;;;;;5022237;28;20182;-66
2022/08/31 06:54:35;;;;;;;3.97;1.20;;;;;;;;;;5026827;28;20564;-66
2022/08/31 06:57:01;;;;;;;3.10;1.00;;;;;;;;;;5027413;28;20280;-66
2022/08/31 06:59:27;;;;;;;6.93;1.67;;;;;;;;;;5025729;28;20174;-66
2022/08/31 07:01:53;;;;;;;3.30;0.95;;;;;;;;;;5026279;28;20686;-66
2022/08/31 07:04:18;;;;;;;1.95;0.93;;;;;;;;;;5015889;28;20214;-66
2022/08/31 07:06:44;;;;;;;4.78;1.58;;;;;;;;;;5027255;28;20432;-66
2022/08/31 07:09:17;;;;;;;1.98;1.10;;;;;;;;;;5024055;28;20526;-66
2022/08/31 07:11:48;;;;;;;2.80;1.17;;;;;;;;;;5019332;28;20572;-66
2022/08/31 07:14:16;;;;;;;1.95;1.17;;;;;;;;;;5026249;28;20593;-66
2022/08/31 07:16:43;;;;;;;4.55;1.30;;;;;;;;;;5027024;28;20178;-66
2022/08/31 07:19:09;;;;;;;1.85;1.00;;;;;;;;;;5026757;28;20192;-66
2022/08/31 07:21:42;;;;;;;2.30;1.00;;;;;;;;;;5031145;28;20650;-67
2022/08/31 07:24:09;;;;;;;1.17;0.90;;;;;;;;;;5030127;28;20564;-66
2022/08/31 07:26:45;;;;;;;2.88;1.10;;;;;;;;;;5031281;28;20243;-66
2022/08/31 07:29:13;;;;;;;2.00;1.00;;;;;;;;;;5030507;28;20186;-67
2022/08/31 07:31:46;;;;;;;2.45;1.02;;;;;;;;;;5027218;28;20220;-66
2022/08/31 07:34:26;;;;;;;2.72;1.10;;;;;;;;;;5030134;28;20256;-67
2022/08/31 07:42:29;;;;;;;2.65;1.20;;;;;;;;;;5030202;28;20289;-70
2022/08/31 07:44:57;;;;;;;1.65;1.00;;;;;;;;;;5028759;28;20198;-68
2022/08/31 07:47:24;;;;;;;11.15;1.45;;;;;;;;;;5028066;28;20245;-66
2022/08/31 07:49:51;;;;;;;2.47;1.10;;;;;;;;;;5016925;28;20232;-66
2022/08/31 07:52:22;;;;;;;1.08;0.80;;;;;;;;;;5027090;28;20282;-67
2022/08/31 07:54:53;;;;;;;3.33;1.00;;;;;;;;;;5029855;28;20555;-67
2022/08/31 07:57:21;;;;;;;1.95;0.82;;;;;;;;;;5031185;28;20174;-65
2022/08/31 07:59:53;;;;;;;3.75;1.10;;;;;;;;;;5027857;28;20494;-67
2022/08/31 08:02:20;;;;;;;1.00;0.80;;;;;;;;;;5026355;28;20656;-66
2022/08/31 08:04:45;;;;;;;1.52;1.30;;;;;;;;;;5029611;28;20182;-68
2022/08/31 08:07:11;;;;;;;5.03;0.90;;;;;;;;;;5031056;28;20209;-65
2022/08/31 08:09:37;;;;;;;2.28;0.90;;;;;;;;;;5029022;28;20269;-67
2022/08/31 08:12:05;;;;;;;2.83;0.93;;;;;;;;;;5028106;28;20182;-66
2022/08/31 08:14:33;;;;;;;2.38;0.75;;;;;;;;;;5030337;28;20256;-66
2022/08/31 08:16:59;;;;;;;4.72;1.20;;;;;;;;;;5027496;28;20174;-67
2022/08/31 08:19:26;;;;;;;2.80;0.93;;;;;;;;;;5029191;28;20198;-65
2022/08/31 08:21:51;;;;;;;2.30;1.08;;;;;;;;;;5029562;28;20560;-67
2022/08/31 08:24:17;;;;;;;2.67;0.85;;;;;;;;;;5028308;28;20197;-66
2022/08/31 08:26:45;;;;;;;1.42;1.00;;;;;;;;;;5028147;28;20175;-68
2022/08/31 08:29:12;;;;;;;2.67;0.77;;;;;;;;;;5028086;28;20206;-64
2022/08/31 08:31:38;;;;;;;1.75;1.20;;;;;;;;;;5027774;28;20200;-66
2022/08/31 08:34:03;;;;;;;2.08;0.95;;;;;;;;;;5028438;28;20252;-67
2022/08/31 08:36:34;;;;;;;2.58;0.90;;;;;;;;;;5029682;28;20237;-67
2022/08/31 08:39:02;;;;;;;1.08;0.90;;;;;;;;;;5027419;28;20586;-67
2022/08/31 08:41:32;;;;;;;1.35;0.90;;;;;;;;;;5029705;28;20236;-67
2022/08/31 08:43:59;;;;;;;2.10;1.00;;;;;;;;;;5029644;28;20182;-67
2022/08/31 08:46:57;;;;;;;3.00;1.00;;;;;;;;;;5030329;28;20831;-68
2022/08/31 08:49:39;;;;;;;3.28;1.10;;;;;;;;;;5028442;28;20269;-68
2022/08/31 08:52:12;;;;;;;1.08;0.73;;;;;;;;;;5028542;28;20687;-67
2022/08/31 08:54:43;;;;;;;1.05;0.82;;;;;;;;;;5027908;28;20324;-70
2022/08/31 08:57:33;;;;;;;3.13;1.02;;;;;;;;;;5016751;28;20522;-65
2022/08/31 09:00:06;;;;;;;5.53;1.80;;;;;;;;;;5026028;28;20646;-67
2022/08/31 09:02:49;;;;;;;3.45;1.15;;;;;;;;;;5025291;28;20178;-66
2022/08/31 09:05:33;;;;;;;3.05;1.00;;;;;;;;;;5026458;28;20185;-65
2022/08/31 09:08:33;;;;;;;1.83;0.95;;;;;;;;;;5027314;28;20321;-66
2022/08/31 09:11:22;;;;;;;3.40;0.90;;;;;;;;;;5025548;28;20198;-74
2022/08/31 09:14:19;;;;;;;2.88;0.98;;;;;;;;;;5028341;28;20170;-69
2022/08/31 09:17:14;;;;;;;0.90;0.82;;;;;;;;;;5029399;28;20272;-67
2022/08/31 09:19:58;;;;;;;2.38;1.00;;;;;;;;;;5026933;28;20551;-68
2022/08/31 09:22:27;;;;;;;1.10;0.90;;;;;;;;;;5026063;28;20190;-68
2022/08/31 09:24:58;;;;;;;2.05;0.75;;;;;;;;;;5026747;28;20655;-67
2022/08/31 09:27:57;;;;;;;3.53;1.02;;;;;;;;;;5028374;28;20221;-66
2022/08/31 09:30:45;;;;;;;1.90;1.02;;;;;;;;;;5003070;28;20190;-68
2022/08/31 09:33:20;;;;;;;3.65;1.02;;;;;;;;;;5028206;28;20577;-67
2022/08/31 09:35:48;;;;;;;1.63;0.70;;;;;;;;;;5025475;28;20264;-67
2022/08/31 09:38:37;;;;;;;3.30;1.25;;;;;;;;;;5028976;28;20618;-66
2022/08/31 09:41:07;;;;;;;2.13;1.10;;;;;;;;;;5025688;28;20178;-67
2022/08/31 09:43:36;;;;;;;1.88;0.90;;;;;;;;;;5028462;28;20188;-69
2022/08/31 09:46:08;;;;;;;3.53;0.95;;;;;;;;;;5027155;28;20192;-69
2022/08/31 09:48:43;;;;;;;3.22;0.95;;;;;;;;;;5027816;28;20193;-67
2022/08/31 09:51:19;;;;;;;8.20;0.98;;;;;;;;;;5025531;28;20176;-68
2022/08/31 09:56:28;;;;;;;1.80;0.95;;;;;;;;;;5025661;28;20242;-66
2022/08/31 09:59:00;;;;;;;4.72;0.85;;;;;;;;;;5027510;28;20636;-67
2022/08/31 10:01:32;;;;;;;2.95;0.95;;;;;;;;;;5027333;28;20186;-66
2022/08/31 10:04:15;;;;;;;1.60;0.85;;;;;;;;;;5026770;28;20676;-66
2022/08/31 10:07:23;;;;;;;1.52;0.90;;;;;;;;;;5027049;28;20312;-65
2022/08/31 10:09:55;;;;;;;2.03;1.00;;;;;;;;;;5025842;28;20216;-69
2022/08/31 10:12:30;;;;;;;1.88;0.88;;;;;;;;;;5028352;28;20617;-67
2022/08/31 10:15:01;;;;;;;1.63;0.95;;;;;;;;;;5028075;28;20185;-69
2022/08/31 10:18:01;;;;;;;1.95;0.90;;;;;;;;;;5027284;28;20199;-72
2022/08/31 10:20:36;;;;;;;2.60;1.15;;;;;;;;;;5021509;28;20190;-70
2022/08/31 10:23:25;;;;;;;1.80;0.80;;;;;;;;;;5021473;28;20744;-67
2022/08/31 10:25:56;;;;;;;1.60;0.82;;;;;;;;;;5015759;28;20230;-69
2022/08/31 10:28:22;;;;;;;3.60;1.10;;;;;;;;;;5022855;28;20708;-67
2022/08/31 10:31:06;;;;;;;2.67;0.88;;;;;;;;;;5025540;28;20178;-76
2022/08/31 10:36:26;;;;;;;2.33;1.00;;;;;;;;;;5027462;28;20280;-69
2022/08/31 10:38:54;;;;;;;2.30;0.90;;;;;;;;;;5027978;28;20171;-76
2022/08/31 10:41:31;;;;;;;5.35;0.80;;;;;;;;;;5024984;28;20228;-69
2022/08/31 10:44:04;;;;;;;3.20;0.90;;;;;;;;;;5027093;28;20173;-68
2022/08/31 10:46:31;;;;;;;3.42;0.93;;;;;;;;;;5027520;28;20642;-67
2022/08/31 10:48:58;;;;;;;2.20;1.23;;;;;;;;;;5026425;28;20433;-68
2022/08/31 10:52:04;;;;;;;2.25;1.08;;;;;;;;;;5017951;28;20681;-69
2022/08/31 10:54:55;;;;;;;2.33;1.00;;;;;;;;;;4973345;28;20231;-69
2022/08/31 10:57:53;;;;;;;3.00;1.23;;;;;;;;;;5024044;28;20198;-69
2022/08/31 11:00:41;;;;;;;2.22;0.80;;;;;;;;;;5021968;28;20178;-68
2022/08/31 11:03:32;;;;;;;2.63;0.90;;;;;;;;;;5016823;28;20375;-68
2022/08/31 11:06:22;;;;;;;0.73;0.65;;;;;;;;;;5014529;28;20300;-76
2022/08/31 11:09:18;;;;;;;2.13;0.75;;;;;;;;;;5026092;28;20295;-75
2022/08/31 11:11:57;;;;;;;5.03;1.42;;;;;;;;;;5013962;28;20626;-69
2022/08/31 11:15:01;;;;;;;1.77;0.90;;;;;;;;;;5015387;28;20539;-79
2022/08/31 11:17:52;;;;;;;2.83;0.73;;;;;;;;;;5018865;28;20186;-70
2022/08/31 11:20:47;;;;;;;1.55;0.80;;;;;;;;;;5008355;28;20268;-67
2022/08/31 11:23:43;;;;;;;1.38;0.82;;;;;;;;;;5023590;28;20216;-69
2022/08/31 11:26:49;;;;;;;3.20;1.10;;;;;;;;;;5028108;28;20309;-66
2022/08/31 11:29:40;;;;;;;3.60;1.00;;;;;;;;;;5020660;28;20621;-67
2022/08/31 11:32:28;;;;;;;2.80;0.80;;;;;;;;;;5026604;28;20217;-68
2022/08/31 11:34:58;;;;;;;2.20;0.88;;;;;;;;;;5010594;28;20197;-68
2022/08/31 11:37:51;;;;;;;1.90;0.82;;;;;;;;;;5028635;28;20174;-67
2022/08/31 11:40:42;;;;;;;2.78;1.00;;;;;;;;;;5025892;28;20205;-68
2022/08/31 11:43:34;;;;;;;2.80;0.90;;;;;;;;;;5015989;28;20559;-69
2022/08/31 11:46:24;;;;;;;5.40;1.20;;;;;;;;;;5027114;28;20280;-76
2022/08/31 11:48:55;;;;;;;2.72;0.95;;;;;;;;;;5015612;28;20198;-70
2022/08/31 11:51:39;;;;;;;3.17;0.90;;;;;;;;;;5019339;28;20596;-67
2022/08/31 11:54:40;;;;;;;2.60;0.80;;;;;;;;;;5017115;28;20622;-68
2022/08/31 11:57:14;;;;;;;2.28;0.70;;;;;;;;;;5015096;28;20198;-67
2022/08/31 11:59:50;;;;;;;2.35;0.90;;;;;;;;;;5026477;28;20606;-68
2022/08/31 12:02:18;;;;;;;3.53;0.93;;;;;;;;;;5017473;28;20269;-69
2022/08/31 12:04:47;;;;;;;3.30;0.90;;;;;;;;;;5023322;28;20194;-68
2022/08/31 12:07:27;;;;;;;3.55;0.90;;;;;;;;;;5025861;28;20336;-68
2022/08/31 12:10:13;;;;;;;4.57;0.95;;;;;;;;;;5026186;28;20178;-69
2022/08/31 12:13:08;;;;;;;2.80;0.55;;;;;;;;;;5031003;28;20194;-67
2022/08/31 12:15:52;;;;;;;3.67;0.75;;;;;;;;;;5021476;28;20706;-68
2022/08/31 12:18:37;;;;;;;1.10;0.80;;;;;;;;;;5021369;28;20532;-79
2022/08/31 12:24:13;;;;;;;2.83;1.10;;;;;;;;;;5030870;28;20308;-67
2022/08/31 12:27:04;;;;;;;1.45;0.70;;;;;;;;;;5017030;28;20243;-66
2022/08/31 12:29:38;;;;;;;0.98;0.70;;;;;;;;;;5030356;28;20274;-68
2022/08/31 12:32:19;;;;;;;2.97;0.82;;;;;;;;;;5014035;28;20604;-69
2022/08/31 12:34:53;;;;;;;2.58;0.60;;;;;;;;;;5027565;28;20194;-71
2022/08/31 12:37:29;;;;;;;1.67;0.57;;;;;;;;;;5020526;28;20266;-68
2022/08/31 12:40:07;;;;;;;6.28;0.90;;;;;;;;;;5030283;28;20181;-70
2022/08/31 12:42:35;;;;;;;2.63;0.75;;;;;;;;;;5030907;28;20312;-70
2022/08/31 12:45:02;;;;;;;3.13;0.90;;;;;;;;;;5027319;28;20649;-70
2022/08/31 12:47:36;;;;;;;1.80;0.88;;;;;;;;;;5012370;28;20216;-69
2022/08/31 12:50:10;;;;;;;1.65;0.60;;;;;;;;;;5027266;28;20189;-67
2022/08/31 12:52:50;;;;;;;1.90;0.90;;;;;;;;;;5025115;28;20638;-69
2022/08/31 12:55:34;;;;;;;0.90;0.60;;;;;;;;;;5030052;28;20633;-70
2022/08/31 12:58:11;;;;;;;2.15;0.57;;;;;;;;;;5030999;28;20705;-68
2022/08/31 13:00:42;;;;;;;3.25;0.85;;;;;;;;;;5028975;28;20183;-74
2022/08/31 13:03:23;;;;;;;3.45;0.98;;;;;;;;;;5019207;28;20190;-69
2022/08/31 13:06:04;;;;;;;3.38;0.80;;;;;;;;;;5025341;28;20191;-70
2022/08/31 13:08:42;;;;;;;0.82;0.52;;;;;;;;;;5021659;28;20205;-71
2022/08/31 13:11:27;;;;;;;2.35;0.85;;;;;;;;;;5025237;28;20660;-71
2022/08/31 13:14:06;;;;;;;4.80;1.13;;;;;;;;;;5028551;28;20247;-70
2022/08/31 13:16:32;;;;;;;1.42;0.90;;;;;;;;;;5021307;28;20264;-71
2022/08/31 13:19:04;;;;;;;3.00;0.80;;;;;;;;;;5021313;28;20186;-68
2022/08/31 13:21:30;;;;;;;1.92;0.75;;;;;;;;;;5020562;28;20277;-68
2022/08/31 13:24:06;;;;;;;1.10;0.80;;;;;;;;;;5029139;28;20232;-70
2022/08/31 13:26:34;;;;;;;2.95;0.90;;;;;;;;;;5021429;28;20225;-70
2022/08/31 13:29:03;;;;;;;3.92;0.70;;;;;;;;;;5025819;28;20198;-73
2022/08/31 13:31:32;;;;;;;4.30;0.73;;;;;;;;;;5018671;28;20298;-69
2022/08/31 13:34:01;;;;;;;2.35;0.65;;;;;;;;;;5023878;28;20272;-68
2022/08/31 13:36:40;;;;;;;2.35;0.60;;;;;;;;;;5019158;28;20225;-68
2022/08/31 13:39:14;;;;;;;0.75;0.75;;;;;;;;;;5016081;28;20189;-68
2022/08/31 13:41:42;;;;;;;3.70;0.70;;;;;;;;;;5027460;28;20186;-68
2022/08/31 13:44:11;;;;;;;4.80;0.85;;;;;;;;;;5027608;28;20506;-67
2022/08/31 13:46:41;;;;;;;1.40;0.80;;;;;;;;;;5028392;28;20189;-68
2022/08/31 13:49:09;;;;;;;1.83;1.00;;;;;;;;;;5028482;28;20190;-70
2022/08/31 13:51:39;;;;;;;1.15;0.70;;;;;;;;;;5022048;28;20189;-74
2022/08/31 13:54:14;;;;;;;4.07;0.80;;;;;;;;;;5028630;28;20239;-75
2022/08/31 13:56:53;;;;;;;1.33;0.80;;;;;;;;;;5027855;28;20699;-69
2022/08/31 13:59:25;;;;;;;1.25;0.68;;;;;;;;;;5030211;28;20177;-68
2022/08/31 14:02:15;;;;;;;1.65;0.68;;;;;;;;;;5023398;28;20654;-69
2022/08/31 14:04:45;;;;;;;3.03;0.65;;;;;;;;;;5011019;28;20210;-68
2022/08/31 14:07:44;;;;;;;1.35;0.70;;;;;;;;;;5012704;28;20186;-71
2022/08/31 14:10:18;;;;;;;3.55;0.73;;;;;;;;;;5016659;28;20686;-69
2022/08/31 14:12:46;;;;;;;5.80;0.80;;;;;;;;;;5017063;28;20193;-67
2022/08/31 14:15:16;;;;;;;2.60;0.50;;;;;;;;;;5025882;28;20284;-71
2022/08/31 14:17:51;;;;;;;2.47;0.70;;;;;;;;;;5016022;28;20182;-67
2022/08/31 14:20:37;;;;;;;1.80;0.60;;;;;;;;;;5016170;28;20178;-69
2022/08/31 14:23:24;;;;;;;1.67;0.70;;;;;;;;;;5027348;28;20193;-68
2022/08/31 14:25:51;;;;;;;2.25;0.60;;;;;;;;;;5024580;28;20309;-69
2022/08/31 14:28:17;;;;;;;1.00;0.63;;;;;;;;;;5025876;28;20285;-69
2022/08/31 14:30:43;;;;;;;2.95;0.60;;;;;;;;;;5027122;28;20332;-68
2022/08/31 14:33:17;;;;;;;3.38;0.80;;;;;;;;;;5022772;28;20221;-69
2022/08/31 14:35:43;;;;;;;0.70;0.63;;;;;;;;;;5027306;28;20185;-76
2022/08/31 14:38:14;;;;;;;2.92;0.70;;;;;;;;;;5027814;28;20193;-69
2022/08/31 14:40:41;;;;;;;1.70;0.63;;;;;;;;;;5017277;28;20188;-72
2022/08/31 14:43:12;;;;;;;3.33;0.80;;;;;;;;;;5022693;28;20209;-68
2022/08/31 14:45:38;;;;;;;1.40;0.70;;;;;;;;;;5024515;28;20263;-68
2022/08/31 14:48:10;;;;;;;3.60;0.75;;;;;;;;;;5024971;28;20663;-68
2022/08/31 14:50:36;;;;;;;1.83;0.70;;;;;;;;;;5026792;28;20178;-68
2022/08/31 14:53:01;;;;;;;2.55;0.70;;;;;;;;;;5021199;28;20680;-68
2022/08/31 14:55:28;;;;;;;2.28;0.60;;;;;;;;;;5023469;28;20186;-68
2022/08/31 14:58:05;;;;;;;3.58;0.70;;;;;;;;;;5026863;28;20361;-68
2022/08/31 15:00:32;;;;;;;2.33;0.52;;;;;;;;;;5020445;28;20638;-68
2022/08/31 15:02:59;;;;;;;1.85;0.50;;;;;;;;;;5018745;28;20192;-68
2022/08/31 15:05:25;;;;;;;2.40;0.75;;;;;;;;;;5025150;28;20248;-67
2022/08/31 15:07:52;;;;;;;1.10;0.70;;;;;;;;;;5016480;28;20229;-69
2022/08/31 15:10:20;;;;;;;1.50;0.80;;;;;;;;;;5022377;28;20272;-68
2022/08/31 15:12:47;;;;;;;2.33;0.80;;;;;;;;;;5015947;28;20553;-68
2022/08/31 15:15:19;;;;;;;3.22;0.60;;;;;;;;;;5027387;28;20745;-68
2022/08/31 15:17:45;;;;;;;4.20;0.70;;;;;;;;;;5023933;28;20216;-67
2022/08/31 15:20:11;;;;;;;1.88;0.80;;;;;;;;;;5013195;28;20832;-67
2022/08/31 15:22:41;;;;;;;1.05;0.68;;;;;;;;;;5012444;28;20184;-67
2022/08/31 15:25:11;;;;;;;1.02;0.90;;;;;;;;;;5007819;28;20475;-67
2022/08/31 15:27:42;;;;;;;1.38;0.65;;;;;;;;;;5013080;28;20206;-70